Akaska, South Dakota
Current Conditions -  °F | °C
As of 11:00 PM on Thursday 30 Oct 2014 (Local Time) from KMBG Reporting Station
Scattered Clouds Scattered Clouds  
Wind Chill: 19°   Ceiling: Unl
Heat Index: 27°   Visibility: 10mi
Dew Point: 22°   Wind: 7mph
Humidity: 81%   Direction: 20°NNE
Pressure: 30.55"   Gusts: NA
Location:  45.33°N, 100.12°W
Report Text: KMBG 310400Z AUTO 02006KT 10SM SCT028 M03/M06 A3055 RMK AO2 T10281056
Loading
Personal Weather Stations






























Interactive Weather Map New forecast layout! Learn more

10-Day Weather Forecast

Advertisements
Track Severe Weather on mobile